Terminal Aerodrome Forecast
Issued by NWS

Home | Current Version | Previous Version | Text Only | Print | Product List | Glossary On
Versions: 1 2 3 4 5 6 7 8 9 10 11 12 13 14 15 16 17
000
FTUS46 KMTR 250320 AAA
TAFSJC
TAF AMD
KSJC 250320Z 2503/2524 30012KT P6SM BKN030 OVC100
     FM250500 31012G19KT P6SM SCT025 BKN080
     FM250700 30008KT P6SM SCT035 BKN150
     FM251800 31012KT P6SM FEW030 BKN150=

USA.gov is the U.S. government's official web portal to all federal, state and local government web resources and services.